الصفحة الرئيسية
METAR-TAF:

METAR-TAF

مطار :

بورت مورسبي, بابوا نيو غينياالجديدة

دائرة عرض: 09-26S, خط طول: 147-13E, ارتفاع: 38 متر

مراقبة الطقس الحالي

تاريخ ووقت الإصدار 42 دقيقة قبل الساعة 03:00UTC
ريح 15 عقدة من الغرب
درجة الحرارة 34°درجة مئوية
الرطوبة 60%
ضغط 1007 hPa
الرؤية 10 كم أو أكثر
غيوم قليلة على ارتفاع 3000 قدم
غيوم متفرقة على ارتفاع 8000 قدم

METAR: AYPY 180300Z 27015KT 9999 FEW030 SCT080 34/25 Q1007

زمن: 13:42 (03:42 UTC)

توقعات

تاريخ ووقت الإصدار 5ساعات و 5 دقيقة قبل الساعة 22:37UTC
التوقعات صالحة من17 الساعة 00 UTC إلى 17 الساعة 24 UTC
ريح 10 عقدة من الغرب/الشمال الغربي
الرؤية: 1007 متر
غيوم متفرقة على ارتفاع 2000 قدم

TAF: AYPY 162237Z 1700/1724 30010KT 9999 SCT020 T 31 33 31 30 Q 1010 1008 1006 1007

أرصاد الطقس والتوقعات من أكثر من 4000 مطار (تقارير الطقس للمطار METAR والتنبؤ بالطقس بالمطارTAF).

المحطات المتاحة هي النقط الصفراء والحمراء على الخريطة.

حرك المؤشر فوق النقطة لمعرفة اسم المحطة.

ثم انقر لمعرفة أرصاد وتوقعات الطقس.

لتغيير الخارطة: اضغط على الأزرار الخضراء مع رمز الصليب الأسود للتكبير. على الزر الأخضر مع شرطة للتصغير، أو على الأسهم الخضراء للخرائط المجاورة.


METAR-TAF: